Time;durP1;ratioP1;P1;durP2;ratioP2;P2;SDS_P1;SDS_P2;PMS_P1;PMS_P2;Temp;Humidity;BMP_temperature;BMP_pressure;BME280_temperature;BME280_humidity;BME280_pressure;Samples;Min_cycle;Max_cycle;Signal;HPM_P1;HPM_P2
2023/07/06 00:00:01;;;;;;;6.50;3.80;;;;;;;21.78;81.02;98843.38;105870;1257;61105;-22
2023/07/06 00:02:38;;;;;;;5.20;4.30;;;;;;;22.23;80.98;98839.73;105658;1254;72731;-23
2023/07/06 00:05:06;;;;;;;5.30;4.80;;;;;;;22.65;79.14;98841.20;105772;1257;74871;-22
2023/07/06 00:07:35;;;;;;;6.30;4.90;;;;;;;22.65;78.40;98838.96;105580;1259;72770;-22
2023/07/06 00:10:06;;;;;;;6.90;5.20;;;;;;;22.44;78.35;98837.55;105414;1259;61167;-22
2023/07/06 00:12:34;;;;;;;13.70;7.80;;;;;;;22.17;79.10;98839.74;105713;1260;61220;-22
2023/07/06 00:15:01;;;;;;;16.90;6.40;;;;;;;21.91;79.98;98840.16;105863;1254;73865;-22
2023/07/06 00:17:28;;;;;;;11.00;5.60;;;;;;;22.21;80.15;98838.02;105864;1254;74566;-22
2023/07/06 00:19:55;;;;;;;13.90;7.60;;;;;;;22.61;78.62;98836.16;105813;1254;72681;-22
2023/07/06 00:22:23;;;;;;;14.50;7.60;;;;;;;22.58;78.15;98837.55;105858;1258;61146;-22
2023/07/06 00:24:50;;;;;;;17.10;7.70;;;;;;;22.38;78.48;98842.48;105540;1255;61177;-22
2023/07/06 00:27:17;;;;;;;11.30;6.20;;;;;;;22.15;79.02;98844.23;105615;1254;73654;-22
2023/07/06 00:29:56;;;;;;;4.90;3.70;;;;;;;21.92;79.56;98842.27;105736;1257;74296;-22
2023/07/06 00:32:28;;;;;;;5.60;3.50;;;;;;;22.27;79.78;98844.78;105540;1254;71665;-22
2023/07/06 00:34:55;;;;;;;6.10;4.50;;;;;;;22.61;78.25;98845.67;105598;1269;61837;-22
2023/07/06 00:37:23;;;;;;;8.30;4.40;;;;;;;22.54;77.87;98845.89;105615;1254;61819;-22
2023/07/06 00:39:50;;;;;;;9.70;5.20;;;;;;;22.32;78.21;98849.38;105636;1259;73911;-22
2023/07/06 00:42:19;;;;;;;6.40;4.40;;;;;;;22.08;78.74;98854.67;105859;1258;74145;-22
2023/07/06 00:44:47;;;;;;;5.40;3.30;;;;;;;21.83;79.77;98849.27;105717;1254;72594;-22
2023/07/06 00:47:15;;;;;;;7.70;3.40;;;;;;;22.22;79.97;98846.99;105803;1257;61162;-22
2023/07/06 00:49:43;;;;;;;5.30;4.00;;;;;;;22.65;78.28;98842.67;105548;1254;61113;-22
2023/07/06 00:52:10;;;;;;;4.70;3.90;;;;;;;22.66;77.35;98842.77;105562;1254;74429;-22
2023/07/06 00:54:40;;;;;;;7.50;4.60;;;;;;;22.47;77.59;98838.60;105503;1260;74304;-22
2023/07/06 00:57:08;;;;;;;6.60;4.70;;;;;;;22.21;78.07;98839.15;105680;1254;70694;-22
2023/07/06 00:59:36;;;;;;;6.00;4.20;;;;;;;21.95;78.70;98837.47;105623;1253;61103;-23
2023/07/06 01:02:03;;;;;;;4.10;3.00;;;;;;;21.74;79.72;98837.30;105484;1260;61147;-22
2023/07/06 01:04:30;;;;;;;5.20;3.30;;;;;;;22.13;79.83;98834.52;105721;1260;73847;-22
2023/07/06 01:06:57;;;;;;;5.80;3.50;;;;;;;22.58;78.12;98829.27;105648;1260;74189;-22
2023/07/06 01:09:25;;;;;;;6.50;4.00;;;;;;;22.58;77.30;98826.41;105702;1255;72669;-22
2023/07/06 01:11:55;;;;;;;6.50;4.60;;;;;;;22.37;77.52;98822.89;105326;1254;61085;-23
2023/07/06 01:14:22;;;;;;;7.60;5.20;;;;;;;22.08;78.21;98822.97;105734;1257;61788;-22
2023/07/06 01:17:05;;;;;;;5.10;4.50;;;;;;;21.82;79.06;98821.89;105546;1257;73838;-22
2023/07/06 01:20:10;;;;;;;4.50;3.40;;;;;;;21.60;80.18;98819.58;105578;1254;74377;-22
2023/07/06 01:23:24;;;;;;;3.50;3.10;;;;;;;22.22;79.48;98819.23;105734;1255;72515;-23
2023/07/06 01:26:13;;;;;;;4.20;3.50;;;;;;;22.50;77.73;98816.56;105673;1260;61128;-22
2023/07/06 01:29:01;;;;;;;4.50;4.00;;;;;;;22.30;77.79;98814.83;105823;1257;61128;-22
2023/07/06 01:31:36;;;;;;;4.70;4.20;;;;;;;21.99;78.52;98813.44;105723;1254;73848;-22
2023/07/06 01:34:12;;;;;;;4.60;4.20;;;;;;;21.68;79.30;98812.88;105688;1254;74205;-23
2023/07/06 01:36:54;;;;;;;9.80;3.10;;;;;;;21.44;80.84;98813.00;105640;1254;72489;-23
2023/07/06 01:39:23;;;;;;;4.00;3.30;;;;;;;21.92;80.61;98811.40;105810;1254;61205;-22
2023/07/06 01:42:08;;;;;;;4.00;3.30;;;;;;;22.29;78.92;98807.40;105644;1261;61106;-22
2023/07/06 01:44:36;;;;;;;6.40;3.50;;;;;;;22.24;78.19;98806.39;105663;1259;73832;-22
2023/07/06 01:47:04;;;;;;;6.20;4.30;;;;;;;22.04;78.58;98805.86;105631;1259;74743;-23
2023/07/06 01:49:31;;;;;;;4.20;3.80;;;;;;;21.79;79.10;98804.23;105598;1254;73148;-23
2023/07/06 01:52:34;;;;;;;3.10;2.80;;;;;;;21.58;80.02;98804.70;105776;1254;62008;-23
2023/07/06 01:55:13;;;;;;;6.60;3.20;;;;;;;22.06;79.74;98799.13;105583;1260;61214;-22
2023/07/06 01:57:52;;;;;;;6.60;3.20;;;;;;;22.36;78.21;98799.67;105669;1254;73523;-23
2023/07/06 02:00:29;;;;;;;8.30;3.60;;;;;;;22.24;77.79;98800.39;105608;1260;74362;-22
2023/07/06 02:02:56;;;;;;;8.60;3.90;;;;;;;22.00;78.39;98799.67;105468;1254;73181;-23
2023/07/06 02:05:23;;;;;;;7.90;4.00;;;;;;;21.74;79.02;98799.27;105557;1259;61171;-23
2023/07/06 02:07:50;;;;;;;4.80;2.70;;;;;;;21.52;79.82;98796.39;105595;1259;61314;-23
2023/07/06 02:10:18;;;;;;;5.60;2.80;;;;;;;21.90;80.11;98794.53;105663;1254;74219;-23
2023/07/06 02:12:47;;;;;;;4.70;3.40;;;;;;;22.32;78.22;98793.65;105688;1260;74328;-23
2023/07/06 02:15:20;;;;;;;5.30;3.90;;;;;;;22.32;77.79;98792.63;105713;1258;72704;-23
2023/07/06 02:17:47;;;;;;;7.60;4.70;;;;;;;22.12;77.82;98794.38;105758;1254;61691;-22
2023/07/06 02:20:16;;;;;;;7.80;4.70;;;;;;;21.87;78.41;98793.64;105682;1253;61157;-23
2023/07/06 02:22:44;;;;;;;6.20;4.50;;;;;;;21.65;79.34;98794.13;105505;1254;73923;-22
2023/07/06 02:25:11;;;;;;;3.20;2.80;;;;;;;21.49;80.04;98794.95;105378;1260;74642;-23
2023/07/06 02:27:38;;;;;;;7.40;3.40;;;;;;;21.92;79.99;98791.59;105414;1254;72653;-23
2023/07/06 02:30:06;;;;;;;4.80;3.00;;;;;;;22.37;78.26;98790.33;105605;1254;61133;-23
2023/07/06 02:32:33;;;;;;;4.00;3.60;;;;;;;22.39;77.50;98789.95;105602;1259;61274;-22
2023/07/06 02:35:02;;;;;;;7.40;3.60;;;;;;;22.16;77.60;98785.44;105817;1254;74370;-23
2023/07/06 02:37:30;;;;;;;4.30;3.60;;;;;;;21.90;78.47;98785.85;105599;1259;74678;-22
2023/07/06 02:40:00;;;;;;;5.50;4.00;;;;;;;21.66;79.12;98781.32;105870;1253;72686;-23
2023/07/06 02:42:29;;;;;;;2.90;2.60;;;;;;;21.49;79.89;98778.13;105820;1252;61128;-22
2023/07/06 02:44:57;;;;;;;4.60;2.80;;;;;;;21.90;79.33;98780.34;105852;1257;61115;-23
2023/07/06 02:47:25;;;;;;;5.10;3.10;;;;;;;22.28;77.61;98782.52;105857;1257;73494;-23
2023/07/06 02:49:53;;;;;;;6.80;3.60;;;;;;;22.20;76.99;98781.15;105753;1254;74375;-23
2023/07/06 02:52:20;;;;;;;6.10;3.90;;;;;;;21.85;77.44;98783.52;105631;1254;71333;-22
2023/07/06 02:54:47;;;;;;;4.30;3.70;;;;;;;21.51;79.17;98785.54;105658;1254;61129;-23
2023/07/06 02:57:14;;;;;;;5.40;3.80;;;;;;;21.27;79.77;98779.15;105874;1254;61059;-23
2023/07/06 02:59:41;;;;;;;3.70;2.50;;;;;;;21.17;80.17;98780.66;105848;1254;73860;-22
2023/07/06 03:02:08;;;;;;;3.20;2.50;;;;;;;21.66;79.94;98778.76;105867;1254;74261;-23
2023/07/06 03:04:36;;;;;;;4.00;2.90;;;;;;;22.17;78.57;98780.06;105648;1253;73192;-23
2023/07/06 03:07:04;;;;;;;4.90;3.30;;;;;;;22.23;77.73;98782.61;105789;1254;61153;-23
2023/07/06 03:09:31;;;;;;;3.70;3.30;;;;;;;22.07;77.58;98786.59;105490;1254;61250;-23
2023/07/06 03:11:58;;;;;;;4.20;3.30;;;;;;;21.80;78.01;98796.16;105601;1254;73847;-23
2023/07/06 03:14:25;;;;;;;5.40;3.40;;;;;;;21.47;79.19;98788.23;105591;1258;74192;-22
2023/07/06 03:16:53;;;;;;;3.40;2.80;;;;;;;21.18;81.23;98787.66;105621;1259;72611;-23
2023/07/06 03:19:21;;;;;;;3.50;2.40;;;;;;;21.48;81.52;98783.76;105580;1259;61183;-23
2023/07/06 03:21:48;;;;;;;4.00;3.40;;;;;;;21.84;80.13;98783.70;105733;1259;61144;-22
2023/07/06 03:24:17;;;;;;;4.60;3.10;;;;;;;21.81;79.93;98787.13;105763;1254;73553;-23
2023/07/06 03:26:44;;;;;;;4.40;3.60;;;;;;;21.68;80.00;98786.79;105596;1254;73321;-23
2023/07/06 03:29:14;;;;;;;4.00;3.50;;;;;;;21.47;80.60;98785.77;105582;1254;72710;-23
2023/07/06 03:31:42;;;;;;;6.80;4.40;;;;;;;21.20;82.50;98787.62;105607;1254;61957;-23
2023/07/06 03:34:09;;;;;;;57.80;30.70;;;;;;;21.49;82.19;98792.31;105777;1256;61172;-23
2023/07/06 03:36:38;;;;;;;99.30;50.40;;;;;;;21.98;80.47;98787.32;105667;1253;73623;-22
2023/07/06 03:39:05;;;;;;;73.80;38.80;;;;;;;21.95;79.72;98781.32;105685;1254;74140;-23
2023/07/06 03:41:33;;;;;;;68.60;34.60;;;;;;;21.82;80.60;98774.92;105724;1254;73355;-23
2023/07/06 03:44:00;;;;;;;96.40;47.40;;;;;;;21.60;81.20;98774.79;105701;1254;61137;-23
2023/07/06 03:46:32;;;;;;;34.10;15.90;;;;;;;21.52;81.68;98780.57;105534;1254;61144;-23
2023/07/06 03:49:03;;;;;;;55.20;26.10;;;;;;;22.04;81.47;98778.53;105564;1253;73885;-23
2023/07/06 03:51:31;;;;;;;20.60;11.80;;;;;;;22.49;78.25;98780.69;105260;1254;73124;-22
2023/07/06 03:53:58;;;;;;;13.90;7.20;;;;;;;22.57;77.61;98783.27;105794;1253;72470;-22
2023/07/06 03:56:28;;;;;;;63.00;27.50;;;;;;;22.28;77.66;98785.90;105759;1254;61139;-23
2023/07/06 03:58:59;;;;;;;39.30;19.70;;;;;;;22.10;78.57;98788.96;105722;1258;61474;-23
2023/07/06 04:01:31;;;;;;;14.80;9.30;;;;;;;21.96;79.69;98799.98;105722;1254;73858;-23
2023/07/06 04:03:58;;;;;;;6.40;4.10;;;;;;;21.89;80.24;98805.66;105681;1257;74296;-23
2023/07/06 04:06:26;;;;;;;4.80;3.40;;;;;;;22.29;80.14;98806.77;105803;1254;73116;-23
2023/07/06 04:08:56;;;;;;;6.00;3.60;;;;;;;22.71;78.79;98807.18;105554;1254;61167;-23
2023/07/06 04:11:23;;;;;;;6.00;3.50;;;;;;;22.77;78.55;98805.36;105658;1253;61134;-23
2023/07/06 04:13:57;;;;;;;4.90;3.60;;;;;;;22.68;78.33;98802.37;105620;1254;73762;-23
2023/07/06 04:16:25;;;;;;;10.00;6.10;;;;;;;22.54;78.41;98798.92;105817;1257;74323;-23
2023/07/06 04:18:52;;;;;;;8.00;5.70;;;;;;;22.29;78.60;98797.20;105802;1254;72987;-23
2023/07/06 04:21:19;;;;;;;10.00;5.40;;;;;;;22.10;79.65;98797.33;105747;1254;62229;-23
2023/07/06 04:23:49;;;;;;;43.70;18.80;;;;;;;22.51;78.85;98793.48;105575;1256;61145;-23
2023/07/06 04:26:19;;;;;;;11.10;6.60;;;;;;;23.03;75.39;98791.92;105620;1254;73690;-25
2023/07/06 04:28:48;;;;;;;14.30;7.60;;;;;;;23.09;75.46;98788.73;105384;1259;74859;-23
2023/07/06 04:31:16;;;;;;;11.80;6.00;;;;;;;22.98;75.82;98792.19;105437;1257;72559;-23
2023/07/06 04:33:46;;;;;;;6.40;5.20;;;;;;;22.85;75.98;98796.91;105456;1254;61066;-23
2023/07/06 04:36:17;;;;;;;9.10;5.60;;;;;;;22.72;76.39;98794.81;105536;1259;61131;-23
2023/07/06 04:38:45;;;;;;;5.40;3.70;;;;;;;22.64;76.93;98787.56;105642;1254;72737;-23
2023/07/06 04:41:13;;;;;;;5.30;3.40;;;;;;;23.15;76.56;98784.80;105805;1254;74205;-23
2023/07/06 04:43:40;;;;;;;8.10;4.00;;;;;;;23.69;74.58;98792.80;105721;1254;71484;-22
2023/07/06 04:46:08;;;;;;;8.70;6.10;;;;;;;23.89;74.67;98801.23;105837;1257;61107;-22
2023/07/06 04:48:37;;;;;;;7.40;4.20;;;;;;;23.89;73.55;98812.09;105718;1258;61147;-23
2023/07/06 04:51:03;;;;;;;7.10;4.40;;;;;;;23.78;73.30;98812.04;105809;1254;73835;-22
2023/07/06 04:53:32;;;;;;;5.30;4.20;;;;;;;23.53;73.03;98806.17;105758;1253;74355;-23
2023/07/06 04:56:00;;;;;;;6.60;4.40;;;;;;;23.38;73.73;98808.20;105873;1254;72565;-23
2023/07/06 04:58:28;;;;;;;3.20;2.70;;;;;;;23.24;74.62;98805.11;105750;1254;61873;-22
2023/07/06 05:00:57;;;;;;;4.20;3.00;;;;;;;23.70;74.12;98801.23;105630;1259;61132;-23
2023/07/06 05:03:30;;;;;;;4.70;3.40;;;;;;;24.16;71.93;98802.19;105716;1259;73784;-23
2023/07/06 05:06:01;;;;;;;5.50;3.50;;;;;;;23.97;70.86;98808.23;105711;1259;74472;-23
2023/07/06 05:08:28;;;;;;;4.60;3.90;;;;;;;23.75;72.51;98809.89;105708;1254;73169;-23
2023/07/06 05:10:55;;;;;;;5.50;3.70;;;;;;;23.53;72.97;98812.84;105747;1254;61144;-23
2023/07/06 05:13:24;;;;;;;6.80;3.90;;;;;;;23.30;73.65;98812.59;105682;1257;61096;-23
2023/07/06 05:15:51;;;;;;;6.10;4.30;;;;;;;23.08;74.28;98811.67;105771;1254;73914;-23
2023/07/06 05:18:21;;;;;;;4.30;2.70;;;;;;;22.84;75.17;98809.74;105719;1259;74493;-23
2023/07/06 05:20:49;;;;;;;4.00;3.30;;;;;;;23.22;75.79;98806.73;105572;1259;72624;-23
2023/07/06 05:23:18;;;;;;;4.60;3.30;;;;;;;23.59;74.39;98799.88;105445;1254;61480;-23
2023/07/06 05:25:46;;;;;;;5.60;3.30;;;;;;;23.61;74.12;98796.84;105447;1254;61192;-23
2023/07/06 05:28:13;;;;;;;5.90;4.10;;;;;;;23.41;74.60;98794.25;105612;1254;73811;-23
2023/07/06 05:30:42;;;;;;;5.90;3.60;;;;;;;23.21;75.29;98787.58;105637;1254;74243;-24
2023/07/06 05:33:09;;;;;;;5.50;4.40;;;;;;;22.96;75.53;98780.94;105538;1254;72461;-23
2023/07/06 05:35:37;;;;;;;3.30;3.00;;;;;;;22.72;76.56;98783.13;105779;1257;61924;-24
2023/07/06 05:38:07;;;;;;;5.10;2.70;;;;;;;23.07;77.20;98777.11;105629;1257;61169;-23
2023/07/06 05:40:34;;;;;;;5.60;3.10;;;;;;;23.51;75.47;98772.55;105845;1253;72791;-25
2023/07/06 05:43:00;;;;;;;7.00;3.60;;;;;;;23.50;74.75;98770.40;105831;1257;74338;-23
2023/07/06 05:45:27;;;;;;;5.00;3.70;;;;;;;23.27;74.71;98768.92;105820;1254;72707;-23
2023/07/06 05:47:55;;;;;;;7.10;3.80;;;;;;;23.02;75.83;98771.46;105653;1255;61055;-23
2023/07/06 05:50:22;;;;;;;5.50;4.40;;;;;;;22.78;76.75;98774.94;105671;1257;61280;-24
2023/07/06 05:52:49;;;;;;;3.50;2.80;;;;;;;22.58;77.70;98775.39;105609;1254;73854;-23
2023/07/06 05:55:17;;;;;;;4.30;2.70;;;;;;;22.99;77.60;98771.94;105538;1257;74131;-23
2023/07/06 05:57:45;;;;;;;3.10;2.80;;;;;;;23.45;76.43;98780.70;105478;1254;72506;-22
2023/07/06 06:00:15;;;;;;;3.70;3.00;;;;;;;23.52;75.69;98775.20;105410;1254;61196;-22
2023/07/06 06:02:44;;;;;;;3.80;3.50;;;;;;;23.38;76.19;98784.26;105546;1259;61796;-22
2023/07/06 06:05:13;;;;;;;4.30;3.90;;;;;;;23.21;76.57;98789.86;105694;1254;73617;-22
2023/07/06 06:07:43;;;;;;;6.80;4.50;;;;;;;23.08;77.03;98787.60;105763;1256;74985;-23
2023/07/06 06:10:12;;;;;;;2.70;2.50;;;;;;;23.00;77.45;98787.27;105584;1258;73615;-22
2023/07/06 06:12:41;;;;;;;4.30;3.40;;;;;;;23.55;76.48;98793.21;105781;1254;61143;-23
2023/07/06 06:15:09;;;;;;;5.70;3.60;;;;;;;23.87;73.97;98793.88;105798;1254;61109;-22
2023/07/06 06:17:37;;;;;;;9.00;4.00;;;;;;;23.76;74.24;98804.43;105678;1254;73683;-22
2023/07/06 06:20:08;;;;;;;5.70;3.80;;;;;;;23.73;75.12;98814.48;105735;1254;73380;-22
2023/07/06 06:22:35;;;;;;;7.70;3.90;;;;;;;23.80;75.85;98814.20;105456;1254;72608;-22
2023/07/06 06:25:02;;;;;;;11.90;3.80;;;;;;;23.71;74.64;98815.45;105549;1257;61170;-22
2023/07/06 06:27:30;;;;;;;5.70;4.30;;;;;;;23.51;75.08;98814.52;105578;1256;61193;-22
2023/07/06 06:29:58;;;;;;;4.60;2.70;;;;;;;23.60;76.70;98815.73;105591;1257;73703;-22
2023/07/06 06:32:25;;;;;;;4.10;2.70;;;;;;;24.37;74.98;98814.27;105533;1258;74267;-22
2023/07/06 06:34:52;;;;;;;4.70;2.80;;;;;;;25.14;72.71;98808.25;105677;1254;71716;-23
2023/07/06 06:37:19;;;;;;;4.00;3.10;;;;;;;25.40;70.39;98809.40;105579;1254;61186;-23
2023/07/06 06:39:47;;;;;;;3.60;3.30;;;;;;;25.47;70.87;98808.73;105365;1258;61182;-22
2023/07/06 06:42:18;;;;;;;4.80;3.40;;;;;;;25.49;69.66;98810.36;105730;1253;73808;-23
2023/07/06 06:44:45;;;;;;;3.50;3.20;;;;;;;25.37;69.27;98812.75;105579;1254;74824;-22
2023/07/06 06:47:12;;;;;;;4.00;3.40;;;;;;;25.26;69.75;98810.59;105663;1254;73270;-22
2023/07/06 06:49:39;;;;;;;6.80;3.20;;;;;;;25.13;69.52;98811.02;105689;1253;61118;-22
2023/07/06 06:52:07;;;;;;;7.70;3.70;;;;;;;24.84;69.61;98811.11;105601;1257;61107;-22
2023/07/06 06:54:34;;;;;;;5.30;2.60;;;;;;;24.82;71.32;98805.90;105571;1254;73986;-22
2023/07/06 06:57:04;;;;;;;3.90;2.90;;;;;;;25.42;70.34;98805.04;105680;1257;74287;-22
2023/07/06 06:59:32;;;;;;;4.60;2.80;;;;;;;25.94;67.95;98804.25;105455;1254;71383;-22
2023/07/06 07:02:01;;;;;;;3.70;3.00;;;;;;;26.12;68.43;98804.92;105644;1254;61058;-22
2023/07/06 07:04:29;;;;;;;4.70;3.40;;;;;;;26.06;67.32;98801.17;105790;1254;61087;-22
2023/07/06 07:06:57;;;;;;;3.80;3.20;;;;;;;25.92;68.09;98800.95;105831;1253;73902;-23
2023/07/06 07:09:24;;;;;;;4.00;3.20;;;;;;;25.83;68.16;98801.11;105690;1259;74301;-23
2023/07/06 07:11:51;;;;;;;4.60;4.10;;;;;;;25.77;68.47;98801.25;105827;1257;72719;-22
2023/07/06 07:14:18;;;;;;;3.70;3.40;;;;;;;25.73;67.74;98800.63;105565;1256;61154;-22
2023/07/06 07:16:45;;;;;;;5.10;3.60;;;;;;;25.61;68.75;98800.04;105595;1253;61142;-22
2023/07/06 07:19:13;;;;;;;3.10;2.50;;;;;;;25.60;69.28;98800.85;105681;1254;73802;-22
2023/07/06 07:21:40;;;;;;;4.70;2.60;;;;;;;26.22;69.08;98804.91;105835;1257;74150;-23
2023/07/06 07:24:08;;;;;;;4.20;2.50;;;;;;;26.93;66.58;98810.08;105655;1254;72568;-22
2023/07/06 07:26:37;;;;;;;4.60;3.30;;;;;;;27.22;65.03;98804.60;105524;1254;61045;-22
2023/07/06 07:29:06;;;;;;;3.70;3.30;;;;;;;27.27;63.93;98808.44;105617;1258;61186;-23
2023/07/06 07:31:33;;;;;;;4.40;3.20;;;;;;;27.28;64.19;98805.20;105626;1254;73800;-22
2023/07/06 07:34:00;;;;;;;4.20;3.00;;;;;;;27.38;63.21;98805.25;105783;1254;74335;-23
2023/07/06 07:36:27;;;;;;;4.60;3.40;;;;;;;27.37;61.94;98807.86;105695;1253;72654;-22
2023/07/06 07:38:56;;;;;;;4.80;3.10;;;;;;;27.19;60.00;98813.39;105734;1254;61061;-23
2023/07/06 07:41:24;;;;;;;5.40;3.20;;;;;;;26.99;61.69;98819.38;105729;1257;61167;-23
2023/07/06 07:43:51;;;;;;;5.00;2.90;;;;;;;27.06;62.79;98825.38;105596;1254;73510;-22
2023/07/06 07:46:19;;;;;;;3.70;3.00;;;;;;;27.17;62.37;98825.55;105719;1254;74824;-22
2023/07/06 07:48:49;;;;;;;5.70;3.10;;;;;;;27.21;62.24;98833.70;105502;1254;72683;-22
2023/07/06 07:51:18;;;;;;;3.90;3.20;;;;;;;27.20;62.44;98836.96;105571;1259;61279;-22
2023/07/06 07:53:47;;;;;;;3.70;2.90;;;;;;;27.22;62.58;98837.25;105399;1254;61144;-22
2023/07/06 07:56:15;;;;;;;7.90;2.70;;;;;;;27.24;62.65;98842.17;105536;1254;73637;-22
2023/07/06 07:58:44;;;;;;;3.60;3.00;;;;;;;27.30;62.85;98840.77;105684;1254;74589;-22
2023/07/06 08:01:13;;;;;;;5.70;3.20;;;;;;;27.38;61.86;98839.56;103575;1254;2740119;-22
2023/07/06 08:03:41;;;;;;;7.00;3.20;;;;;;;27.33;61.29;98836.27;105665;1254;61075;-22
2023/07/06 08:06:09;;;;;;;7.90;3.50;;;;;;;27.21;60.02;98834.41;105662;1254;61849;-22
2023/07/06 08:08:37;;;;;;;3.80;2.80;;;;;;;26.90;60.58;98831.44;105667;1254;73898;-23
2023/07/06 08:11:25;;;;;;;5.60;3.10;;;;;;;26.99;60.54;98833.17;105752;1254;72887;-22
2023/07/06 08:13:53;;;;;;;6.80;3.50;;;;;;;27.41;60.53;98828.98;105778;1253;72636;-22
2023/07/06 08:16:21;;;;;;;5.40;2.80;;;;;;;27.75;61.02;98827.70;105555;1254;61186;-21
2023/07/06 08:18:49;;;;;;;5.40;3.00;;;;;;;28.19;58.91;98826.31;105586;1254;61147;-22
2023/07/06 08:21:19;;;;;;;7.00;3.00;;;;;;;28.60;57.59;98830.75;105664;1254;73880;-22
2023/07/06 08:24:07;;;;;;;5.30;3.20;;;;;;;28.89;56.34;98833.38;105735;1254;74131;-22
2023/07/06 08:26:35;;;;;;;4.30;2.30;;;;;;;29.05;55.46;98832.79;105682;1254;72444;-22
2023/07/06 08:29:02;;;;;;;6.30;2.70;;;;;;;29.18;54.58;98834.73;105514;1253;61006;-22
2023/07/06 08:31:29;;;;;;;9.00;2.80;;;;;;;29.16;54.66;98836.91;105618;1253;61134;-22
2023/07/06 08:34:00;;;;;;;4.60;2.90;;;;;;;28.95;53.97;98836.11;105812;1253;73816;-22
2023/07/06 08:36:27;;;;;;;8.10;3.10;;;;;;;28.98;55.50;98841.88;105837;1254;75898;-22
2023/07/06 08:38:56;;;;;;;4.40;2.80;;;;;;;28.86;53.07;98836.06;105594;1257;72549;-23
2023/07/06 08:41:30;;;;;;;5.70;2.70;;;;;;;28.64;55.72;98838.16;105567;1256;61177;-21
2023/07/06 08:44:04;;;;;;;2.80;2.50;;;;;;;28.71;55.34;98836.71;105662;1254;61344;-23
2023/07/06 08:46:35;;;;;;;7.40;2.90;;;;;;;28.68;52.81;98834.13;105632;1254;73855;-21
2023/07/06 08:49:02;;;;;;;2.90;2.70;;;;;;;28.48;53.97;98837.08;105352;1259;74154;-24
2023/07/06 08:51:36;;;;;;;3.50;2.50;;;;;;;28.20;54.15;98838.96;105611;1254;73084;-22
2023/07/06 08:54:17;;;;;;;4.20;2.70;;;;;;;27.95;53.71;98839.50;105547;1254;61141;-23
2023/07/06 08:56:45;;;;;;;2.80;2.50;;;;;;;27.98;53.26;98838.56;105680;1258;61402;-23
2023/07/06 08:59:32;;;;;;;3.00;2.60;;;;;;;28.08;53.30;98840.58;105548;1258;74375;-23
2023/07/06 09:02:18;;;;;;;4.20;2.60;;;;;;;28.11;53.19;98842.45;105694;1254;74253;-23
2023/07/06 09:04:46;;;;;;;7.20;3.20;;;;;;;28.09;53.21;98837.66;105712;1254;72660;-23
2023/07/06 09:07:15;;;;;;;2.90;2.60;;;;;;;28.00;53.19;98834.86;105738;1254;61227;-22
2023/07/06 09:09:47;;;;;;;4.20;2.90;;;;;;;27.80;54.53;98831.94;105698;1259;61192;-22
2023/07/06 09:12:24;;;;;;;6.40;3.50;;;;;;;27.50;57.24;98831.58;105702;1254;73721;-22
2023/07/06 09:14:52;;;;;;;22.00;4.40;;;;;;;27.24;58.40;98830.51;105718;1257;75667;-22
2023/07/06 09:17:19;;;;;;;8.70;3.40;;;;;;;27.06;58.97;98831.27;105943;1254;72629;-23
2023/07/06 09:19:47;;;;;;;6.90;3.80;;;;;;;26.91;59.55;98830.98;105914;1256;61143;-22
2023/07/06 09:22:15;;;;;;;6.70;3.20;;;;;;;26.82;60.75;98829.69;105969;1252;61163;-23
2023/07/06 09:24:45;;;;;;;4.50;3.60;;;;;;;26.63;62.49;98826.87;105683;1254;73671;-23
2023/07/06 09:27:17;;;;;;;8.20;3.70;;;;;;;26.20;62.92;98828.69;105636;1254;74267;-22
2023/07/06 09:29:56;;;;;;;5.60;3.90;;;;;;;26.32;62.79;98831.02;105694;1254;71690;-23
2023/07/06 09:32:23;;;;;;;5.20;3.10;;;;;;;26.25;63.15;98831.02;105708;1254;61141;-23
2023/07/06 09:34:56;;;;;;;7.20;3.40;;;;;;;26.12;63.49;98831.48;105755;1253;61103;-23
2023/07/06 09:37:24;;;;;;;6.50;3.50;;;;;;;26.10;63.15;98831.83;105638;1260;72563;-23
2023/07/06 09:40:09;;;;;;;3.80;3.20;;;;;;;26.01;63.31;98832.70;105882;1254;74184;-22
2023/07/06 09:42:38;;;;;;;3.70;3.30;;;;;;;25.93;63.89;98828.89;105633;1254;72416;-24
2023/07/06 09:45:27;;;;;;;4.70;3.50;;;;;;;25.81;63.50;98830.23;105635;1254;61183;-21
2023/07/06 09:48:07;;;;;;;10.60;4.30;;;;;;;25.74;64.26;98831.36;105698;1259;61112;-21
2023/07/06 09:50:38;;;;;;;5.20;4.10;;;;;;;25.65;63.89;98835.32;105707;1254;73936;-24
2023/07/06 09:53:07;;;;;;;27.50;14.90;;;;;;;25.51;64.55;98835.48;105639;1254;74283;-23
2023/07/06 09:55:34;;;;;;;33.70;17.10;;;;;;;25.35;65.42;98839.49;105810;1254;70302;-22
2023/07/06 09:58:01;;;;;;;44.20;24.30;;;;;;;25.03;66.24;98841.39;105743;1254;61058;-21
2023/07/06 10:00:36;;;;;;;12.70;8.00;;;;;;;24.85;66.78;98840.10;105912;1256;61144;-21
2023/07/06 10:03:10;;;;;;;4.80;4.10;;;;;;;25.04;67.77;98836.08;105712;1254;73687;-23
2023/07/06 10:05:44;;;;;;;5.70;3.60;;;;;;;24.96;67.63;98842.91;105546;1255;74326;-21
2023/07/06 10:08:15;;;;;;;21.50;12.70;;;;;;;24.80;68.66;98840.81;105586;1254;72679;-21
2023/07/06 10:11:09;;;;;;;47.50;31.40;;;;;;;25.22;67.51;98833.26;105670;1254;61017;-21
2023/07/06 10:13:38;;;;;;;23.20;18.20;;;;;;;25.33;66.15;98832.30;105676;1260;61138;-22
2023/07/06 10:16:24;;;;;;;8.20;5.80;;;;;;;25.11;66.74;98831.16;105724;1254;73901;-22
2023/07/06 10:18:52;;;;;;;12.80;5.70;;;;;;;25.05;67.58;98836.20;105548;1259;74154;-22
2023/07/06 10:21:36;;;;;;;5.90;5.30;;;;;;;25.22;67.99;98839.12;105399;1254;73173;-22
2023/07/06 10:24:08;;;;;;;22.70;17.70;;;;;;;25.13;67.88;98839.13;105441;1254;61041;-22
2023/07/06 10:26:41;;;;;;;18.60;14.80;;;;;;;25.22;68.00;98836.77;105662;1258;61119;-22
2023/07/06 10:29:10;;;;;;;6.50;4.60;;;;;;;24.97;68.85;98841.55;105666;1259;73883;-22
2023/07/06 10:32:04;;;;;;;6.60;4.00;;;;;;;25.19;69.39;98842.48;105521;1253;73054;-22
2023/07/06 10:34:54;;;;;;;9.40;4.90;;;;;;;25.80;68.15;98846.27;105624;1254;72664;-22
2023/07/06 10:37:24;;;;;;;8.80;4.10;;;;;;;25.84;67.46;98840.14;105649;1254;61150;-22
2023/07/06 10:40:04;;;;;;;10.90;4.20;;;;;;;25.33;68.59;98840.20;105283;1261;61288;-22
2023/07/06 10:42:32;;;;;;;6.70;4.40;;;;;;;25.11;69.92;98843.21;105659;1254;73872;-22
2023/07/06 10:45:01;;;;;;;6.60;4.00;;;;;;;25.44;70.60;98841.39;105417;1254;74292;-22
2023/07/06 10:47:28;;;;;;;5.10;4.60;;;;;;;25.48;70.44;98844.49;105472;1254;70425;-21
2023/07/06 10:50:23;;;;;;;6.10;3.70;;;;;;;25.48;70.42;98846.29;105846;1254;61162;-22
2023/07/06 10:52:59;;;;;;;4.80;3.20;;;;;;;25.34;70.96;98845.20;105650;1256;61189;-22
2023/07/06 10:55:35;;;;;;;3.40;3.00;;;;;;;26.06;69.21;98840.77;105403;1259;73871;-22
2023/07/06 10:58:22;;;;;;;4.50;3.80;;;;;;;26.48;67.67;98840.61;105364;1254;74386;-22
2023/07/06 11:00:49;;;;;;;4.50;4.00;;;;;;;26.44;66.68;98837.17;105647;1254;72764;-22
2023/07/06 11:03:20;;;;;;;4.50;4.10;;;;;;;26.25;67.78;98835.27;105862;1254;61153;-22
2023/07/06 11:06:07;;;;;;;5.60;4.70;;;;;;;26.01;67.86;98835.52;105707;1259;61118;-22
2023/07/06 11:09:10;;;;;;;5.50;4.40;;;;;;;25.67;68.89;98836.20;105788;1254;73967;-22
2023/07/06 11:11:40;;;;;;;7.40;5.90;;;;;;;24.96;70.10;98835.08;105803;1257;74566;-21
2023/07/06 11:14:20;;;;;;;6.40;4.80;;;;;;;25.26;70.75;98831.36;105633;1254;70240;-22
2023/07/06 11:17:00;;;;;;;8.10;5.30;;;;;;;25.28;70.48;98825.20;105631;1252;61076;-21
2023/07/06 11:19:30;;;;;;;5.00;3.80;;;;;;;24.87;71.87;98830.52;105646;1254;61144;-22
2023/07/06 11:22:03;;;;;;;8.50;6.70;;;;;;;25.48;69.89;98827.85;105614;1254;73622;-22
2023/07/06 11:24:33;;;;;;;7.30;5.70;;;;;;;25.83;68.13;98819.94;105699;1254;74369;-22
2023/07/06 11:27:04;;;;;;;8.50;6.70;;;;;;;25.47;68.18;98818.81;105718;1259;72351;-22
2023/07/06 11:29:31;;;;;;;12.00;8.50;;;;;;;25.50;67.93;98820.81;105689;1259;61103;-22
2023/07/06 11:32:04;;;;;;;13.00;10.40;;;;;;;25.37;68.43;98821.22;105843;1252;61110;-21
2023/07/06 11:34:39;;;;;;;12.80;8.20;;;;;;;25.13;69.00;98815.48;105689;1254;73801;-22
2023/07/06 11:37:12;;;;;;;14.40;11.10;;;;;;;24.79;70.24;98811.00;105626;1254;74364;-22
2023/07/06 11:39:54;;;;;;;;;;;;;;;24.44;72.05;98808.20;105603;1254;72608;-23